createdAt,value
2023-05-19T00:01:00.317Z,49.57
2023-05-19T00:03:27.431Z,49.60
2023-05-19T00:05:54.376Z,49.80
2023-05-19T00:08:23.852Z,49.67
2023-05-19T00:10:50.689Z,49.46
2023-05-19T00:13:17.542Z,49.75
2023-05-19T00:15:44.428Z,49.80
2023-05-19T00:18:14.178Z,49.62
2023-05-19T00:20:41.344Z,50.10
2023-05-19T00:23:08.072Z,49.91
2023-05-19T00:25:34.786Z,49.98
2023-05-19T00:28:02.458Z,50.04
2023-05-19T00:30:30.265Z,49.94
2023-05-19T00:32:57.078Z,50.30
2023-05-19T00:35:24.164Z,50.27
2023-05-19T00:37:50.699Z,50.44
2023-05-19T00:40:17.568Z,50.49
2023-05-19T00:42:44.106Z,50.37
2023-05-19T00:45:10.723Z,50.32
2023-05-19T00:47:37.322Z,50.40
2023-05-19T00:50:04.573Z,50.41
2023-05-19T00:52:31.304Z,50.23
2023-05-19T00:54:57.942Z,50.29
2023-05-19T00:57:24.606Z,50.08
2023-05-19T00:59:51.273Z,50.13
2023-05-19T01:02:18.106Z,50.37
2023-05-19T01:04:45.077Z,50.17
2023-05-19T01:07:12.518Z,50.41
2023-05-19T01:09:40.704Z,50.37
2023-05-19T01:12:07.891Z,50.32
2023-05-19T01:14:34.444Z,50.37
2023-05-19T01:17:20.685Z,50.77
2023-05-19T01:20:02.132Z,50.73
2023-05-19T01:22:47.467Z,50.64
2023-05-19T01:25:42.704Z,50.85
2023-05-19T01:28:39.934Z,50.84
2023-05-19T01:31:09.678Z,50.83
2023-05-19T01:33:37.823Z,50.56
2023-05-19T01:36:07.524Z,50.79
2023-05-19T01:38:36.341Z,51.03
2023-05-19T01:41:04.346Z,51.20
2023-05-19T01:43:31.706Z,50.97
2023-05-19T01:45:59.025Z,51.28
2023-05-19T01:48:27.237Z,51.13
2023-05-19T01:50:53.792Z,51.01
2023-05-19T01:53:20.331Z,51.00
2023-05-19T01:55:49.875Z,51.35
2023-05-19T01:58:43.964Z,51.36
2023-05-19T02:01:44.188Z,51.54
2023-05-19T02:04:25.444Z,51.36
2023-05-19T02:07:03.583Z,51.29
2023-05-19T02:09:45.287Z,51.40
2023-05-19T02:12:18.979Z,51.41
2023-05-19T02:14:49.714Z,51.21
2023-05-19T02:17:17.938Z,51.15
2023-05-19T02:19:44.883Z,51.33
2023-05-19T02:22:11.549Z,51.23
2023-05-19T02:24:39.427Z,51.33
2023-05-19T02:27:06.354Z,51.18
2023-05-19T02:29:32.936Z,51.34
2023-05-19T02:32:01.390Z,51.59
2023-05-19T02:34:28.034Z,51.39
2023-05-19T02:36:54.599Z,51.49
2023-05-19T02:39:21.100Z,51.57
2023-05-19T02:41:47.655Z,51.51
2023-05-19T02:44:14.188Z,51.68
2023-05-19T02:46:40.984Z,51.50
2023-05-19T02:49:07.999Z,51.57
2023-05-19T02:51:34.512Z,51.60
2023-05-19T02:54:01.019Z,51.72
2023-05-19T02:56:28.235Z,51.81
2023-05-19T02:58:54.732Z,51.61
2023-05-19T03:01:23.079Z,51.58
2023-05-19T03:03:49.889Z,51.79
2023-05-19T03:06:18.081Z,51.79
2023-05-19T03:08:45.047Z,51.91
2023-05-19T03:11:11.555Z,51.72
2023-05-19T03:13:38.086Z,51.92
2023-05-19T03:16:04.829Z,51.99
2023-05-19T03:18:31.770Z,52.01
2023-05-19T03:20:58.290Z,52.01
2023-05-19T03:23:24.853Z,52.04
2023-05-19T03:25:51.409Z,52.00
2023-05-19T03:28:18.011Z,52.23
2023-05-19T03:30:44.580Z,52.08
2023-05-19T03:33:11.790Z,52.01
2023-05-19T03:35:38.390Z,52.08
2023-05-19T03:38:04.957Z,52.11
2023-05-19T03:40:31.842Z,52.22
2023-05-19T03:42:58.710Z,51.92
2023-05-19T03:45:25.259Z,52.13
2023-05-19T03:47:51.859Z,52.29
2023-05-19T03:50:18.451Z,51.63
2023-05-19T03:52:46.650Z,51.89
2023-05-19T03:55:14.731Z,51.96
2023-05-19T03:57:41.604Z,51.80
2023-05-19T04:00:11.214Z,51.84
2023-05-19T04:02:38.013Z,51.55
2023-05-19T04:05:05.172Z,51.77
2023-05-19T04:07:31.905Z,51.80
2023-05-19T04:09:58.490Z,51.81
2023-05-19T04:12:25.009Z,51.90
2023-05-19T04:14:51.526Z,51.92
2023-05-19T04:17:18.094Z,52.02
2023-05-19T04:19:44.650Z,52.02
2023-05-19T04:22:11.202Z,52.14
2023-05-19T04:24:37.728Z,52.45
2023-05-19T04:27:04.887Z,52.22
2023-05-19T04:29:32.648Z,52.39
2023-05-19T04:31:59.063Z,52.31
2023-05-19T04:34:25.649Z,52.58
2023-05-19T04:36:53.452Z,52.31
2023-05-19T04:39:21.454Z,52.67
2023-05-19T04:41:48.313Z,52.64
2023-05-19T04:44:18.255Z,52.74
2023-05-19T04:46:45.346Z,52.79
2023-05-19T04:49:15.075Z,52.80
2023-05-19T04:51:42.364Z,52.85
2023-05-19T04:54:10.037Z,52.89
2023-05-19T04:56:36.943Z,52.92
2023-05-19T04:59:03.719Z,52.49
2023-05-19T05:01:31.457Z,52.87
2023-05-19T05:03:59.141Z,52.92
2023-05-19T05:06:26.553Z,52.65
2023-05-19T05:08:53.305Z,52.78
2023-05-19T05:11:20.620Z,52.98
2023-05-19T05:13:47.574Z,52.94
2023-05-19T05:16:14.896Z,53.09
2023-05-19T05:18:44.323Z,53.41
2023-05-19T05:21:12.279Z,52.79
2023-05-19T05:23:39.101Z,52.71
2023-05-19T05:26:16.858Z,52.92
2023-05-19T05:28:43.417Z,52.67
2023-05-19T05:31:09.940Z,52.84
2023-05-19T05:33:37.495Z,52.97
2023-05-19T05:36:04.813Z,53.03
2023-05-19T05:38:31.509Z,52.95
2023-05-19T05:40:58.045Z,53.26
2023-05-19T05:43:24.602Z,53.20
2023-05-19T05:45:51.171Z,53.26
2023-05-19T05:48:18.106Z,53.23
2023-05-19T05:50:46.071Z,53.34
2023-05-19T05:53:19.320Z,53.27
2023-05-19T05:55:47.361Z,53.16
2023-05-19T05:58:15.721Z,53.16
2023-05-19T06:00:45.478Z,53.33
2023-05-19T06:03:12.273Z,53.39
2023-05-19T06:05:39.366Z,53.14
2023-05-19T06:08:06.298Z,53.34
2023-05-19T06:10:33.273Z,53.29
2023-05-19T06:13:00.149Z,53.24
2023-05-19T06:15:26.796Z,53.19
2023-05-19T06:17:54.654Z,53.18
2023-05-19T06:20:21.407Z,53.21
2023-05-19T06:22:48.071Z,53.20
2023-05-19T06:25:14.599Z,53.44
2023-05-19T06:27:41.793Z,53.58
2023-05-19T06:30:08.997Z,53.20
2023-05-19T06:32:35.676Z,53.23
2023-05-19T06:35:02.268Z,53.26
2023-05-19T06:37:28.813Z,53.31
2023-05-19T06:39:55.534Z,53.06
2023-05-19T06:42:22.921Z,52.99
2023-05-19T06:44:50.547Z,53.09
2023-05-19T06:47:17.684Z,52.82
2023-05-19T06:49:45.142Z,52.52
2023-05-19T06:52:12.067Z,52.69
2023-05-19T06:54:38.690Z,52.52
2023-05-19T06:57:05.713Z,52.57
2023-05-19T06:59:32.275Z,52.56
2023-05-19T07:01:58.938Z,52.73
2023-05-19T07:04:25.632Z,52.10
2023-05-19T07:06:52.407Z,52.11
2023-05-19T07:09:18.983Z,51.98
2023-05-19T07:11:45.852Z,52.13
2023-05-19T07:14:12.437Z,52.31
2023-05-19T07:16:39.010Z,52.26
2023-05-19T07:19:05.725Z,52.39
2023-05-19T07:21:32.332Z,52.29
2023-05-19T07:23:58.877Z,52.25
2023-05-19T07:26:26.357Z,52.27
2023-05-19T07:28:53.047Z,52.31
2023-05-19T07:31:19.704Z,52.05
2023-05-19T07:33:46.337Z,52.22
2023-05-19T07:36:12.854Z,51.98
2023-05-19T07:38:39.674Z,51.87
2023-05-19T07:41:06.231Z,51.97
2023-05-19T07:43:32.826Z,52.26
2023-05-19T07:45:59.448Z,52.06
2023-05-19T07:48:26.112Z,52.23
2023-05-19T07:50:53.247Z,52.28
2023-05-19T07:53:20.166Z,52.24
2023-05-19T07:55:46.886Z,52.09
2023-05-19T07:58:13.749Z,52.58
2023-05-19T08:00:43.042Z,52.05
2023-05-19T08:03:10.032Z,51.95
2023-05-19T08:05:36.819Z,52.38
2023-05-19T08:08:03.781Z,51.74
2023-05-19T08:10:30.471Z,52.04
2023-05-19T08:12:57.054Z,52.09
2023-05-19T08:15:23.734Z,52.12
2023-05-19T08:17:50.309Z,52.13
2023-05-19T08:20:17.146Z,51.92
2023-05-19T08:22:43.656Z,51.62
2023-05-19T08:25:10.448Z,51.86
2023-05-19T08:27:37.028Z,51.90
2023-05-19T08:30:03.716Z,51.70
2023-05-19T08:32:30.381Z,51.83
2023-05-19T08:34:56.987Z,51.78
2023-05-19T08:37:23.504Z,51.51
2023-05-19T08:39:50.091Z,51.56
2023-05-19T08:42:16.713Z,51.51
2023-05-19T08:44:44.117Z,51.35
2023-05-19T08:47:13.953Z,51.65
2023-05-19T08:49:45.533Z,51.53
2023-05-19T08:52:41.927Z,51.75
2023-05-19T08:55:43.984Z,51.61
2023-05-19T08:58:12.718Z,51.50
2023-05-19T09:00:39.818Z,51.55
2023-05-19T09:03:18.331Z,51.87
2023-05-19T09:05:50.773Z,51.42
2023-05-19T09:08:18.398Z,51.45
2023-05-19T09:10:44.991Z,51.51
2023-05-19T09:13:11.752Z,51.47
2023-05-19T09:15:39.216Z,51.43
2023-05-19T09:18:10.898Z,51.23
2023-05-19T09:20:40.214Z,51.44
2023-05-19T09:23:07.826Z,51.32
2023-05-19T09:25:34.769Z,51.21
2023-05-19T09:28:01.524Z,51.36
2023-05-19T09:30:28.469Z,51.12
2023-05-19T09:32:55.037Z,51.12
2023-05-19T09:35:21.697Z,51.13
2023-05-19T09:37:48.336Z,50.88
2023-05-19T09:40:15.785Z,50.84
2023-05-19T09:42:44.015Z,51.27
2023-05-19T09:45:11.348Z,51.04
2023-05-19T09:47:42.011Z,51.15
2023-05-19T09:50:11.014Z,51.00
2023-05-19T09:52:44.233Z,50.99
2023-05-19T09:55:12.787Z,51.08
2023-05-19T09:57:40.772Z,51.08
2023-05-19T10:00:15.281Z,51.16
2023-05-19T10:02:44.132Z,50.82
2023-05-19T10:05:20.366Z,51.09
2023-05-19T10:07:50.011Z,51.14
2023-05-19T10:10:17.044Z,51.42
2023-05-19T10:12:44.000Z,51.52
2023-05-19T10:15:13.089Z,52.38
2023-05-19T10:17:40.969Z,52.52
2023-05-19T10:20:12.783Z,52.58
2023-05-19T10:22:39.880Z,54.05
2023-05-19T10:25:08.220Z,52.70
2023-05-19T10:27:38.922Z,52.57
2023-05-19T10:30:14.443Z,52.19
2023-05-19T10:32:45.147Z,52.15
2023-05-19T10:35:30.323Z,51.84
2023-05-19T10:37:58.184Z,51.69
2023-05-19T10:40:30.131Z,51.72
2023-05-19T10:43:01.476Z,51.94
2023-05-19T10:45:34.729Z,51.64
2023-05-19T10:48:01.610Z,51.57
2023-05-19T10:50:36.665Z,51.64
2023-05-19T10:53:03.238Z,51.59
2023-05-19T10:56:04.428Z,51.40
2023-05-19T10:58:46.122Z,51.32
2023-05-19T11:01:17.915Z,51.55
2023-05-19T11:03:52.293Z,51.22
2023-05-19T11:06:18.901Z,51.28
2023-05-19T11:08:45.446Z,51.23
2023-05-19T11:11:19.109Z,51.38
2023-05-19T11:13:55.045Z,51.32
2023-05-19T11:16:29.781Z,51.39
2023-05-19T11:18:59.449Z,51.68
2023-05-19T11:21:41.742Z,51.72
2023-05-19T11:24:09.374Z,51.65
2023-05-19T11:26:42.307Z,51.72
2023-05-19T11:29:09.214Z,51.43
2023-05-19T11:31:36.469Z,51.23
2023-05-19T11:34:06.797Z,51.01
2023-05-19T11:36:35.025Z,51.25
2023-05-19T11:39:02.650Z,51.35
2023-05-19T11:41:30.981Z,51.13
2023-05-19T11:43:57.776Z,51.05
2023-05-19T11:46:25.158Z,50.85
2023-05-19T11:48:53.993Z,50.95
2023-05-19T11:51:21.654Z,50.94
2023-05-19T11:53:49.677Z,50.87
2023-05-19T11:56:16.356Z,50.82
2023-05-19T11:58:42.860Z,50.54
2023-05-19T12:01:10.265Z,50.94
2023-05-19T12:03:37.210Z,50.72
2023-05-19T12:06:05.822Z,50.60
2023-05-19T12:08:32.641Z,50.59
2023-05-19T12:10:59.437Z,50.58
2023-05-19T12:13:26.117Z,50.49
2023-05-19T12:15:53.526Z,50.63
2023-05-19T12:18:20.695Z,50.67
2023-05-19T12:20:47.451Z,51.09
2023-05-19T12:23:14.421Z,50.98
2023-05-19T12:25:41.188Z,51.07
2023-05-19T12:28:07.813Z,51.13
2023-05-19T12:30:35.284Z,50.98
2023-05-19T12:33:02.913Z,50.86
2023-05-19T12:35:33.102Z,50.76
2023-05-19T12:38:04.730Z,50.67
2023-05-19T12:40:33.218Z,50.93
2023-05-19T12:43:00.156Z,50.84
2023-05-19T12:45:30.826Z,50.82
2023-05-19T12:47:57.789Z,50.54
2023-05-19T12:50:31.135Z,50.38
2023-05-19T12:52:59.819Z,50.51
2023-05-19T12:55:26.698Z,50.50
2023-05-19T12:57:56.800Z,50.19
2023-05-19T13:00:32.608Z,50.24
2023-05-19T13:03:01.976Z,50.35
2023-05-19T13:05:30.904Z,49.93
2023-05-19T13:08:09.024Z,50.05
2023-05-19T13:10:36.986Z,50.25
2023-05-19T13:13:04.448Z,50.09
2023-05-19T13:15:36.385Z,49.91
2023-05-19T13:18:04.617Z,50.06
2023-05-19T13:20:31.336Z,50.03
2023-05-19T13:22:57.989Z,49.81
2023-05-19T13:25:24.644Z,49.93
2023-05-19T13:27:51.252Z,49.92
2023-05-19T13:30:18.772Z,49.97
2023-05-19T13:32:45.974Z,49.91
2023-05-19T13:35:14.545Z,49.76
2023-05-19T13:37:44.403Z,50.43
2023-05-19T13:40:12.061Z,50.93
2023-05-19T13:42:38.826Z,50.76
2023-05-19T13:45:05.886Z,50.79
2023-05-19T13:47:32.602Z,50.35
2023-05-19T13:49:59.355Z,50.28
2023-05-19T13:52:27.551Z,50.25
2023-05-19T13:54:56.601Z,49.92
2023-05-19T13:57:24.064Z,50.07
2023-05-19T14:00:01.860Z,49.84
2023-05-19T14:02:30.010Z,49.64
2023-05-19T14:04:57.007Z,49.58
2023-05-19T14:07:23.673Z,49.47
2023-05-19T14:09:51.229Z,49.65
2023-05-19T14:12:17.961Z,49.75
2023-05-19T14:14:44.834Z,49.41
2023-05-19T14:17:12.306Z,49.68
2023-05-19T14:19:38.941Z,49.02
2023-05-19T14:22:05.955Z,48.70
2023-05-19T14:24:32.571Z,48.89
2023-05-19T14:26:59.116Z,49.12
2023-05-19T14:29:26.675Z,48.81
2023-05-19T14:31:53.334Z,48.94
2023-05-19T14:34:21.227Z,48.90
2023-05-19T14:36:48.722Z,49.09
2023-05-19T14:39:15.554Z,49.08
2023-05-19T14:41:42.089Z,49.25
2023-05-19T14:44:08.825Z,48.94
2023-05-19T14:46:35.977Z,49.27
2023-05-19T14:49:03.302Z,49.20
2023-05-19T14:51:29.854Z,49.07
2023-05-19T14:53:56.455Z,49.43
2023-05-19T14:56:23.074Z,49.07
2023-05-19T14:58:49.620Z,49.34
2023-05-19T15:01:16.309Z,49.43
2023-05-19T15:03:42.945Z,49.43
2023-05-19T15:06:13.072Z,49.21
2023-05-19T15:08:40.780Z,48.82
2023-05-19T15:11:07.780Z,48.49
2023-05-19T15:13:34.293Z,48.51
2023-05-19T15:16:15.481Z,48.81
2023-05-19T15:18:43.456Z,48.90
2023-05-19T15:21:10.212Z,48.84
2023-05-19T15:23:36.768Z,48.93
2023-05-19T15:26:03.435Z,49.02
2023-05-19T15:28:30.094Z,49.27
2023-05-19T15:30:56.654Z,49.23
2023-05-19T15:33:23.315Z,49.17
2023-05-19T15:35:51.737Z,49.45
2023-05-19T15:38:20.020Z,49.45
2023-05-19T15:40:46.936Z,49.85
2023-05-19T15:43:13.812Z,49.86
2023-05-19T15:45:40.911Z,50.02
2023-05-19T15:48:07.778Z,50.12
2023-05-19T15:50:34.638Z,49.83
2023-05-19T15:53:01.503Z,50.50
2023-05-19T15:55:28.089Z,50.76
2023-05-19T15:57:54.621Z,50.11
2023-05-19T16:00:21.319Z,50.40
2023-05-19T16:02:48.062Z,50.04
2023-05-19T16:05:14.740Z,50.66
2023-05-19T16:07:42.230Z,50.97
2023-05-19T16:10:09.194Z,50.37
2023-05-19T16:12:36.671Z,50.49
2023-05-19T16:15:03.786Z,50.23
2023-05-19T16:17:30.665Z,50.42
2023-05-19T16:19:57.275Z,50.36
2023-05-19T16:22:24.817Z,50.46
2023-05-19T16:24:52.154Z,50.72
2023-05-19T16:27:19.064Z,50.82
2023-05-19T16:29:45.837Z,50.98
2023-05-19T16:32:12.852Z,50.79
2023-05-19T16:34:39.774Z,50.95
2023-05-19T16:37:06.764Z,50.79
2023-05-19T16:39:36.024Z,50.66
2023-05-19T16:42:03.375Z,50.79
2023-05-19T16:44:30.104Z,50.92
2023-05-19T16:46:56.628Z,50.96
2023-05-19T16:49:23.151Z,51.07
2023-05-19T16:51:50.068Z,51.33
2023-05-19T16:54:16.757Z,51.47
2023-05-19T16:56:43.311Z,51.54
2023-05-19T16:59:09.920Z,52.01
2023-05-19T17:01:36.570Z,52.33
2023-05-19T17:04:03.196Z,52.84
2023-05-19T17:06:29.772Z,53.44
2023-05-19T17:08:56.316Z,53.70
2023-05-19T17:11:22.934Z,53.67
2023-05-19T17:13:49.647Z,53.77
2023-05-19T17:16:16.332Z,53.92
2023-05-19T17:18:43.828Z,54.50
2023-05-19T17:21:10.643Z,54.51
2023-05-19T17:23:37.901Z,54.76
2023-05-19T17:26:04.668Z,54.91
2023-05-19T17:28:31.247Z,55.19
2023-05-19T17:30:57.850Z,55.08
2023-05-19T17:33:24.599Z,55.46
2023-05-19T17:35:51.278Z,55.26
2023-05-19T17:38:17.831Z,55.72
2023-05-19T17:40:44.505Z,55.89
2023-05-19T17:43:11.017Z,56.27
2023-05-19T17:45:37.568Z,56.36
2023-05-19T17:48:04.791Z,56.79
2023-05-19T17:50:31.526Z,56.90
2023-05-19T17:52:58.520Z,57.46
2023-05-19T17:55:29.732Z,57.13
2023-05-19T17:57:56.907Z,57.48
2023-05-19T18:00:25.137Z,57.82
2023-05-19T18:02:52.449Z,58.13
2023-05-19T18:05:19.675Z,58.23
2023-05-19T18:07:46.388Z,57.95
2023-05-19T18:10:15.388Z,58.53
2023-05-19T18:12:41.910Z,58.47
2023-05-19T18:15:08.746Z,58.18
2023-05-19T18:17:35.498Z,58.33
2023-05-19T18:20:02.391Z,58.50
2023-05-19T18:22:29.002Z,59.17
2023-05-19T18:24:56.236Z,59.24
2023-05-19T18:27:22.768Z,59.02
2023-05-19T18:29:49.317Z,59.10
2023-05-19T18:32:17.673Z,59.25
2023-05-19T18:34:44.276Z,59.15
2023-05-19T18:37:10.877Z,59.01
2023-05-19T18:39:37.450Z,58.37
2023-05-19T18:42:04.252Z,58.71
2023-05-19T18:44:31.104Z,58.55
2023-05-19T18:46:57.644Z,58.76
2023-05-19T18:49:25.035Z,58.29
2023-05-19T18:51:51.869Z,58.53
2023-05-19T18:54:19.433Z,58.21
2023-05-19T18:56:46.115Z,58.42
2023-05-19T18:59:12.775Z,58.12
2023-05-19T19:01:39.535Z,58.07
2023-05-19T19:04:06.287Z,58.15
2023-05-19T19:06:32.882Z,57.76
2023-05-19T19:08:59.417Z,58.41
2023-05-19T19:11:26.396Z,58.50
2023-05-19T19:13:55.472Z,58.56
2023-05-19T19:16:22.438Z,58.91
2023-05-19T19:18:49.161Z,59.12
2023-05-19T19:21:15.859Z,59.22
2023-05-19T19:23:42.452Z,59.69
2023-05-19T19:26:09.567Z,59.68
2023-05-19T19:28:36.513Z,59.51
2023-05-19T19:31:03.328Z,59.93
2023-05-19T19:33:29.892Z,59.70
2023-05-19T19:35:56.549Z,59.71
2023-05-19T19:38:23.133Z,59.99
2023-05-19T19:40:52.501Z,60.03
2023-05-19T19:43:19.461Z,60.28
2023-05-19T19:45:46.141Z,59.90
2023-05-19T19:48:12.856Z,60.05
2023-05-19T19:50:39.457Z,60.16
2023-05-19T19:53:06.184Z,60.17
2023-05-19T19:55:32.870Z,60.07
2023-05-19T19:57:59.425Z,60.08
2023-05-19T20:00:26.149Z,60.05
2023-05-19T20:03:04.239Z,59.96
2023-05-19T20:05:32.007Z,60.38
2023-05-19T20:07:58.564Z,60.52
2023-05-19T20:10:25.176Z,60.48
2023-05-19T20:12:52.039Z,60.97
2023-05-19T20:15:18.759Z,60.67
2023-05-19T20:17:45.878Z,60.34
2023-05-19T20:20:12.924Z,60.66
2023-05-19T20:22:39.685Z,60.61
2023-05-19T20:25:06.593Z,60.82
2023-05-19T20:27:33.222Z,60.84
2023-05-19T20:29:59.825Z,60.66
2023-05-19T20:32:26.444Z,60.65
2023-05-19T20:34:53.059Z,60.95
2023-05-19T20:37:20.998Z,60.85
2023-05-19T20:39:47.742Z,60.88
2023-05-19T20:42:14.337Z,60.87
2023-05-19T20:44:41.044Z,61.52
2023-05-19T20:47:08.219Z,61.42
2023-05-19T20:49:35.085Z,61.12
2023-05-19T20:52:01.914Z,61.38
2023-05-19T20:54:28.486Z,61.46
2023-05-19T20:56:55.012Z,61.40
2023-05-19T20:59:21.807Z,61.29
2023-05-19T21:01:51.636Z,61.21
2023-05-19T21:04:19.491Z,61.35
2023-05-19T21:06:46.558Z,60.96
2023-05-19T21:09:14.824Z,61.38
2023-05-19T21:11:42.668Z,61.31
2023-05-19T21:14:11.862Z,61.21
2023-05-19T21:16:47.126Z,60.83
2023-05-19T21:19:14.356Z,60.92
2023-05-19T21:21:43.462Z,60.50
2023-05-19T21:24:13.120Z,60.24
2023-05-19T21:26:42.216Z,60.58
2023-05-19T21:29:10.210Z,60.42
2023-05-19T21:31:47.889Z,60.38
2023-05-19T21:34:16.085Z,60.53
2023-05-19T21:36:44.178Z,60.94
2023-05-19T21:39:11.903Z,60.49
2023-05-19T21:41:38.746Z,60.87
2023-05-19T21:44:06.295Z,61.32
2023-05-19T21:46:37.484Z,61.09
2023-05-19T21:49:08.478Z,61.09
2023-05-19T21:51:38.424Z,60.98
2023-05-19T21:54:08.065Z,61.09
2023-05-19T21:56:35.010Z,61.15
2023-05-19T21:59:01.820Z,61.74
2023-05-19T22:01:29.812Z,61.13
2023-05-19T22:04:02.942Z,61.31
2023-05-19T22:06:31.682Z,61.44
2023-05-19T22:09:01.356Z,61.54
2023-05-19T22:11:30.008Z,61.56
2023-05-19T22:13:56.937Z,61.26
2023-05-19T22:16:26.555Z,61.63
2023-05-19T22:18:55.804Z,61.45
2023-05-19T22:21:28.111Z,61.49
2023-05-19T22:23:58.146Z,61.45
2023-05-19T22:26:27.274Z,61.45
2023-05-19T22:28:54.068Z,61.35
2023-05-19T22:31:20.687Z,61.35
2023-05-19T22:33:47.483Z,61.45
2023-05-19T22:36:16.034Z,61.46
2023-05-19T22:38:42.561Z,61.77
2023-05-19T22:41:09.086Z,61.89
2023-05-19T22:43:35.723Z,61.65
2023-05-19T22:46:02.360Z,61.52
2023-05-19T22:48:28.884Z,61.60
2023-05-19T22:50:55.468Z,61.63
2023-05-19T22:53:21.985Z,61.54
2023-05-19T22:55:48.494Z,61.64
2023-05-19T22:58:15.078Z,61.65
2023-05-19T23:00:41.592Z,61.90
2023-05-19T23:03:08.172Z,61.87
2023-05-19T23:05:35.272Z,61.92
2023-05-19T23:08:02.053Z,61.71
2023-05-19T23:10:28.845Z,61.91
2023-05-19T23:12:55.453Z,61.98
2023-05-19T23:15:21.962Z,61.69
2023-05-19T23:17:48.614Z,61.51
2023-05-19T23:20:15.303Z,61.33
2023-05-19T23:22:41.831Z,61.90
2023-05-19T23:25:08.488Z,61.77
2023-05-19T23:27:35.684Z,61.83
2023-05-19T23:30:03.093Z,61.86
2023-05-19T23:32:29.711Z,61.63
2023-05-19T23:34:56.354Z,61.65
2023-05-19T23:37:22.933Z,61.75
2023-05-19T23:39:49.515Z,61.84
2023-05-19T23:42:16.106Z,61.56
2023-05-19T23:44:42.702Z,61.60
2023-05-19T23:47:09.319Z,61.48
2023-05-19T23:49:36.002Z,61.10
2023-05-19T23:52:02.510Z,61.15
2023-05-19T23:54:30.312Z,60.94
2023-05-19T23:56:56.950Z,61.03
2023-05-19T23:59:23.529Z,60.87
